sensor_id;sensor_type;location;lat;lon;timestamp;temperature;humidity
5419;DHT22;2732;52.092;11.556;2022-11-20T00:00:07;-1.90;99.90
5419;DHT22;2732;52.092;11.556;2022-11-20T00:05:08;-1.90;99.90
5419;DHT22;2732;52.092;11.556;2022-11-20T00:10:09;-1.90;99.90
5419;DHT22;2732;52.092;11.556;2022-11-20T00:15:10;-1.80;99.90
5419;DHT22;2732;52.092;11.556;2022-11-20T00:20:11;-1.80;99.90
5419;DHT22;2732;52.092;11.556;2022-11-20T00:25:12;-1.80;99.90
5419;DHT22;2732;52.092;11.556;2022-11-20T00:30:13;-1.70;99.90
5419;DHT22;2732;52.092;11.556;2022-11-20T00:35:14;-1.70;99.90
5419;DHT22;2732;52.092;11.556;2022-11-20T00:40:14;-1.70;99.90
5419;DHT22;2732;52.092;11.556;2022-11-20T00:45:15;-1.60;99.90
5419;DHT22;2732;52.092;11.556;2022-11-20T00:50:16;-1.60;99.90
5419;DHT22;2732;52.092;11.556;2022-11-20T00:55:16;-1.60;99.90
5419;DHT22;2732;52.092;11.556;2022-11-20T01:00:17;-1.60;99.90
5419;DHT22;2732;52.092;11.556;2022-11-20T01:05:18;-1.50;99.90
5419;DHT22;2732;52.092;11.556;2022-11-20T01:10:19;-1.50;99.90
5419;DHT22;2732;52.092;11.556;2022-11-20T01:15:19;-1.50;99.90
5419;DHT22;2732;52.092;11.556;2022-11-20T01:20:20;-1.50;99.90
5419;DHT22;2732;52.092;11.556;2022-11-20T01:25:21;-1.50;99.90
5419;DHT22;2732;52.092;11.556;2022-11-20T01:30:21;-1.50;99.90
5419;DHT22;2732;52.092;11.556;2022-11-20T01:35:22;-1.50;99.90
5419;DHT22;2732;52.092;11.556;2022-11-20T01:40:23;-1.50;99.90
5419;DHT22;2732;52.092;11.556;2022-11-20T01:45:56;-1.40;99.90
5419;DHT22;2732;52.092;11.556;2022-11-20T01:51:10;-1.40;99.90
5419;DHT22;2732;52.092;11.556;2022-11-20T01:56:15;-1.40;99.90
5419;DHT22;2732;52.092;11.556;2022-11-20T02:01:16;-1.40;99.90
5419;DHT22;2732;52.092;11.556;2022-11-20T02:06:29;-1.40;99.90
5419;DHT22;2732;52.092;11.556;2022-11-20T02:11:33;-1.40;99.90
5419;DHT22;2732;52.092;11.556;2022-11-20T02:16:45;-1.40;99.90
5419;DHT22;2732;52.092;11.556;2022-11-20T02:22:08;-1.30;99.90
5419;DHT22;2732;52.092;11.556;2022-11-20T02:27:14;-1.30;99.90
5419;DHT22;2732;52.092;11.556;2022-11-20T02:32:33;-1.30;99.90
5419;DHT22;2732;52.092;11.556;2022-11-20T02:37:38;-1.20;99.90
5419;DHT22;2732;52.092;11.556;2022-11-20T02:42:40;-1.20;99.90
5419;DHT22;2732;52.092;11.556;2022-11-20T02:47:41;-1.20;99.90
5419;DHT22;2732;52.092;11.556;2022-11-20T02:52:42;-1.20;99.90
5419;DHT22;2732;52.092;11.556;2022-11-20T02:57:43;-1.20;99.90
5419;DHT22;2732;52.092;11.556;2022-11-20T03:02:44;-1.10;99.90
5419;DHT22;2732;52.092;11.556;2022-11-20T03:07:44;-1.10;99.90
5419;DHT22;2732;52.092;11.556;2022-11-20T03:12:45;-1.10;99.90
5419;DHT22;2732;52.092;11.556;2022-11-20T03:17:46;-1.10;99.90
5419;DHT22;2732;52.092;11.556;2022-11-20T03:22:46;-1.10;99.90
5419;DHT22;2732;52.092;11.556;2022-11-20T03:27:47;-1.20;99.90
5419;DHT22;2732;52.092;11.556;2022-11-20T03:32:47;-1.20;99.90
5419;DHT22;2732;52.092;11.556;2022-11-20T03:37:48;-1.20;99.90
5419;DHT22;2732;52.092;11.556;2022-11-20T03:42:49;-1.20;99.90
5419;DHT22;2732;52.092;11.556;2022-11-20T03:47:49;-1.30;99.90
5419;DHT22;2732;52.092;11.556;2022-11-20T03:52:50;-1.30;99.90
5419;DHT22;2732;52.092;11.556;2022-11-20T03:57:51;-1.30;99.90
5419;DHT22;2732;52.092;11.556;2022-11-20T04:02:52;-1.40;99.90
5419;DHT22;2732;52.092;11.556;2022-11-20T04:07:52;-1.40;99.90
5419;DHT22;2732;52.092;11.556;2022-11-20T04:12:53;-1.40;99.90
5419;DHT22;2732;52.092;11.556;2022-11-20T04:17:54;-1.40;99.90
5419;DHT22;2732;52.092;11.556;2022-11-20T04:22:55;-1.50;99.90
5419;DHT22;2732;52.092;11.556;2022-11-20T04:27:55;-1.50;99.90
5419;DHT22;2732;52.092;11.556;2022-11-20T04:32:56;-1.50;99.90
5419;DHT22;2732;52.092;11.556;2022-11-20T04:37:57;-1.50;99.90
5419;DHT22;2732;52.092;11.556;2022-11-20T04:42:57;-1.50;99.90
5419;DHT22;2732;52.092;11.556;2022-11-20T04:47:58;-1.50;99.90
5419;DHT22;2732;52.092;11.556;2022-11-20T04:52:59;-1.50;99.90
5419;DHT22;2732;52.092;11.556;2022-11-20T04:57:59;-1.50;99.90
5419;DHT22;2732;52.092;11.556;2022-11-20T05:03:00;-1.50;99.90
5419;DHT22;2732;52.092;11.556;2022-11-20T05:08:01;-1.50;99.90
5419;DHT22;2732;52.092;11.556;2022-11-20T05:13:02;-1.50;99.90
5419;DHT22;2732;52.092;11.556;2022-11-20T05:18:02;-1.50;99.90
5419;DHT22;2732;52.092;11.556;2022-11-20T05:23:03;-1.60;99.90
5419;DHT22;2732;52.092;11.556;2022-11-20T05:28:04;-1.60;99.90
5419;DHT22;2732;52.092;11.556;2022-11-20T05:33:05;-1.60;99.90
5419;DHT22;2732;52.092;11.556;2022-11-20T05:38:05;-1.60;99.90
5419;DHT22;2732;52.092;11.556;2022-11-20T05:43:06;-1.60;99.90
5419;DHT22;2732;52.092;11.556;2022-11-20T05:48:06;-1.70;99.90
5419;DHT22;2732;52.092;11.556;2022-11-20T05:53:07;-1.70;99.90
5419;DHT22;2732;52.092;11.556;2022-11-20T05:58:08;-1.70;99.90
5419;DHT22;2732;52.092;11.556;2022-11-20T06:03:08;-1.70;99.90
5419;DHT22;2732;52.092;11.556;2022-11-20T06:08:09;-1.80;99.90
5419;DHT22;2732;52.092;11.556;2022-11-20T06:13:10;-1.80;99.90
5419;DHT22;2732;52.092;11.556;2022-11-20T06:18:10;-1.80;99.90
5419;DHT22;2732;52.092;11.556;2022-11-20T06:23:11;-1.90;99.90
5419;DHT22;2732;52.092;11.556;2022-11-20T06:28:12;-1.90;99.90
5419;DHT22;2732;52.092;11.556;2022-11-20T06:33:12;-1.90;99.90
5419;DHT22;2732;52.092;11.556;2022-11-20T06:38:13;-1.90;99.90
5419;DHT22;2732;52.092;11.556;2022-11-20T06:43:14;-2.00;99.90
5419;DHT22;2732;52.092;11.556;2022-11-20T06:48:14;-2.00;99.90
5419;DHT22;2732;52.092;11.556;2022-11-20T06:53:15;-2.00;99.90
5419;DHT22;2732;52.092;11.556;2022-11-20T06:58:17;-2.00;99.90
5419;DHT22;2732;52.092;11.556;2022-11-20T07:03:18;-2.00;99.90
5419;DHT22;2732;52.092;11.556;2022-11-20T07:08:20;-2.00;99.90
5419;DHT22;2732;52.092;11.556;2022-11-20T07:13:21;-2.10;99.90
5419;DHT22;2732;52.092;11.556;2022-11-20T07:18:21;-2.10;99.90
5419;DHT22;2732;52.092;11.556;2022-11-20T07:23:22;-2.10;99.90
5419;DHT22;2732;52.092;11.556;2022-11-20T07:28:23;-2.10;99.90
5419;DHT22;2732;52.092;11.556;2022-11-20T07:33:24;-2.10;99.90
5419;DHT22;2732;52.092;11.556;2022-11-20T07:38:24;-2.10;99.90
5419;DHT22;2732;52.092;11.556;2022-11-20T07:43:25;-2.10;99.90
5419;DHT22;2732;52.092;11.556;2022-11-20T07:48:26;-2.10;99.90
5419;DHT22;2732;52.092;11.556;2022-11-20T07:53:26;-2.10;99.90
5419;DHT22;2732;52.092;11.556;2022-11-20T07:58:29;-2.00;99.90
5419;DHT22;2732;52.092;11.556;2022-11-20T08:03:30;-1.90;99.90
5419;DHT22;2732;52.092;11.556;2022-11-20T08:08:31;-1.80;99.90
5419;DHT22;2732;52.092;11.556;2022-11-20T08:13:31;-1.70;99.90
5419;DHT22;2732;52.092;11.556;2022-11-20T08:18:50;-1.60;99.90
5419;DHT22;2732;52.092;11.556;2022-11-20T08:23:51;-1.40;99.90
5419;DHT22;2732;52.092;11.556;2022-11-20T08:28:56;-1.30;99.90
5419;DHT22;2732;52.092;11.556;2022-11-20T08:33:57;-1.30;99.90
5419;DHT22;2732;52.092;11.556;2022-11-20T08:38:58;-1.10;99.90
5419;DHT22;2732;52.092;11.556;2022-11-20T08:44:01;-1.10;99.90
5419;DHT22;2732;52.092;11.556;2022-11-20T08:49:05;-1.00;99.90
5419;DHT22;2732;52.092;11.556;2022-11-20T08:54:07;-0.90;99.90
5419;DHT22;2732;52.092;11.556;2022-11-20T08:59:08;-0.80;99.90
5419;DHT22;2732;52.092;11.556;2022-11-20T09:04:09;-0.70;99.90
5419;DHT22;2732;52.092;11.556;2022-11-20T09:09:10;-0.60;99.90
5419;DHT22;2732;52.092;11.556;2022-11-20T09:14:10;-0.50;99.90
5419;DHT22;2732;52.092;11.556;2022-11-20T09:19:11;-0.50;99.90
5419;DHT22;2732;52.092;11.556;2022-11-20T09:24:12;-0.40;99.90
5419;DHT22;2732;52.092;11.556;2022-11-20T09:29:13;-0.30;99.90
5419;DHT22;2732;52.092;11.556;2022-11-20T09:34:14;-0.20;99.90
5419;DHT22;2732;52.092;11.556;2022-11-20T09:39:14;-0.20;99.90
5419;DHT22;2732;52.092;11.556;2022-11-20T09:50:19;-0.10;99.90
5419;DHT22;2732;52.092;11.556;2022-11-20T09:55:28;-0.10;99.90
5419;DHT22;2732;52.092;11.556;2022-11-20T10:00:29;0.00;99.90
5419;DHT22;2732;52.092;11.556;2022-11-20T10:05:38;0.00;99.90
5419;DHT22;2732;52.092;11.556;2022-11-20T10:10:46;0.00;99.90
5419;DHT22;2732;52.092;11.556;2022-11-20T10:16:15;0.10;99.90
5419;DHT22;2732;52.092;11.556;2022-11-20T10:22:01;0.20;99.90
5419;DHT22;2732;52.092;11.556;2022-11-20T10:32:37;0.30;99.90
5419;DHT22;2732;52.092;11.556;2022-11-20T10:37:44;0.40;99.90
5419;DHT22;2732;52.092;11.556;2022-11-20T10:42:53;0.40;99.90
5419;DHT22;2732;52.092;11.556;2022-11-20T10:48:35;0.50;99.90
5419;DHT22;2732;52.092;11.556;2022-11-20T11:04:44;0.70;99.90
5419;DHT22;2732;52.092;11.556;2022-11-20T11:09:50;0.80;99.90
5419;DHT22;2732;52.092;11.556;2022-11-20T11:14:55;0.90;99.90
5419;DHT22;2732;52.092;11.556;2022-11-20T11:20:18;1.00;99.90
5419;DHT22;2732;52.092;11.556;2022-11-20T11:25:30;1.10;99.90
5419;DHT22;2732;52.092;11.556;2022-11-20T11:30:41;1.10;99.90
5419;DHT22;2732;52.092;11.556;2022-11-20T11:35:52;1.10;99.90
5419;DHT22;2732;52.092;11.556;2022-11-20T11:40:57;1.20;99.90
5419;DHT22;2732;52.092;11.556;2022-11-20T11:45:58;1.30;99.90
5419;DHT22;2732;52.092;11.556;2022-11-20T11:50:59;1.40;99.90
5419;DHT22;2732;52.092;11.556;2022-11-20T11:56:08;1.50;99.90
5419;DHT22;2732;52.092;11.556;2022-11-20T12:06:17;1.60;99.90
5419;DHT22;2732;52.092;11.556;2022-11-20T12:16:36;1.70;99.90
5419;DHT22;2732;52.092;11.556;2022-11-20T12:22:03;1.70;99.90
5419;DHT22;2732;52.092;11.556;2022-11-20T12:44:19;1.90;99.90
5419;DHT22;2732;52.092;11.556;2022-11-20T12:50:28;2.00;99.90
5419;DHT22;2732;52.092;11.556;2022-11-20T12:55:56;2.00;99.90
5419;DHT22;2732;52.092;11.556;2022-11-20T13:01:49;2.00;99.90
5419;DHT22;2732;52.092;11.556;2022-11-20T13:06:54;2.10;99.90
5419;DHT22;2732;52.092;11.556;2022-11-20T13:12:03;2.10;99.90
5419;DHT22;2732;52.092;11.556;2022-11-20T13:17:17;2.00;99.90
5419;DHT22;2732;52.092;11.556;2022-11-20T13:22:42;2.00;99.90
5419;DHT22;2732;52.092;11.556;2022-11-20T13:27:47;2.00;99.90
5419;DHT22;2732;52.092;11.556;2022-11-20T13:32:54;1.90;99.90
5419;DHT22;2732;52.092;11.556;2022-11-20T13:38:12;1.90;99.90
5419;DHT22;2732;52.092;11.556;2022-11-20T13:43:35;2.00;99.90
5419;DHT22;2732;52.092;11.556;2022-11-20T13:48:43;1.90;99.90
5419;DHT22;2732;52.092;11.556;2022-11-20T14:04:43;1.80;99.90
5419;DHT22;2732;52.092;11.556;2022-11-20T14:09:51;1.70;99.90
5419;DHT22;2732;52.092;11.556;2022-11-20T14:14:54;1.70;99.90
5419;DHT22;2732;52.092;11.556;2022-11-20T14:20:00;1.70;99.90
5419;DHT22;2732;52.092;11.556;2022-11-20T14:35:23;1.70;99.90
5419;DHT22;2732;52.092;11.556;2022-11-20T14:40:34;1.70;99.90
5419;DHT22;2732;52.092;11.556;2022-11-20T14:45:37;1.70;99.90
5419;DHT22;2732;52.092;11.556;2022-11-20T14:50:38;1.70;99.90
5419;DHT22;2732;52.092;11.556;2022-11-20T14:55:40;1.60;99.90
5419;DHT22;2732;52.092;11.556;2022-11-20T15:00:41;1.60;99.90
5419;DHT22;2732;52.092;11.556;2022-11-20T15:05:47;1.60;99.90
5419;DHT22;2732;52.092;11.556;2022-11-20T15:10:50;1.50;99.90
5419;DHT22;2732;52.092;11.556;2022-11-20T15:15:54;1.50;99.90
5419;DHT22;2732;52.092;11.556;2022-11-20T15:20:57;1.40;99.90
5419;DHT22;2732;52.092;11.556;2022-11-20T15:25:59;1.40;99.90
5419;DHT22;2732;52.092;11.556;2022-11-20T15:31:00;1.30;99.90
5419;DHT22;2732;52.092;11.556;2022-11-20T15:36:02;1.20;99.90
5419;DHT22;2732;52.092;11.556;2022-11-20T15:41:05;1.20;99.90
5419;DHT22;2732;52.092;11.556;2022-11-20T15:46:10;1.10;99.90
5419;DHT22;2732;52.092;11.556;2022-11-20T15:51:29;1.00;99.90
5419;DHT22;2732;52.092;11.556;2022-11-20T15:56:32;0.90;99.90
5419;DHT22;2732;52.092;11.556;2022-11-20T16:01:33;0.90;99.90
5419;DHT22;2732;52.092;11.556;2022-11-20T16:06:34;0.80;99.90
5419;DHT22;2732;52.092;11.556;2022-11-20T16:11:35;0.70;99.90
5419;DHT22;2732;52.092;11.556;2022-11-20T16:16:37;0.70;99.90
5419;DHT22;2732;52.092;11.556;2022-11-20T16:21:41;0.60;99.90
5419;DHT22;2732;52.092;11.556;2022-11-20T16:26:43;0.50;99.90
5419;DHT22;2732;52.092;11.556;2022-11-20T16:31:44;0.40;99.90
5419;DHT22;2732;52.092;11.556;2022-11-20T16:36:44;0.30;99.90
5419;DHT22;2732;52.092;11.556;2022-11-20T16:41:45;0.20;99.90
5419;DHT22;2732;52.092;11.556;2022-11-20T16:46:46;0.10;99.90
5419;DHT22;2732;52.092;11.556;2022-11-20T16:51:46;0.00;99.90
5419;DHT22;2732;52.092;11.556;2022-11-20T16:56:47;0.00;99.90
5419;DHT22;2732;52.092;11.556;2022-11-20T17:01:51;-0.10;99.90
5419;DHT22;2732;52.092;11.556;2022-11-20T17:06:52;-0.20;99.90
5419;DHT22;2732;52.092;11.556;2022-11-20T17:11:52;-0.30;99.90
5419;DHT22;2732;52.092;11.556;2022-11-20T17:16:53;-0.30;99.90
5419;DHT22;2732;52.092;11.556;2022-11-20T17:21:54;-0.30;99.90
5419;DHT22;2732;52.092;11.556;2022-11-20T17:26:55;-0.30;99.90
5419;DHT22;2732;52.092;11.556;2022-11-20T17:31:55;-0.30;99.90
5419;DHT22;2732;52.092;11.556;2022-11-20T17:36:56;-0.30;99.90
5419;DHT22;2732;52.092;11.556;2022-11-20T17:41:57;-0.20;99.90
5419;DHT22;2732;52.092;11.556;2022-11-20T17:47:16;-0.20;99.90
5419;DHT22;2732;52.092;11.556;2022-11-20T17:52:16;-0.30;99.90
5419;DHT22;2732;52.092;11.556;2022-11-20T17:57:17;-0.30;99.90
5419;DHT22;2732;52.092;11.556;2022-11-20T18:02:36;-0.40;99.90
5419;DHT22;2732;52.092;11.556;2022-11-20T18:07:36;-0.40;99.90
5419;DHT22;2732;52.092;11.556;2022-11-20T18:12:40;-0.50;99.90
5419;DHT22;2732;52.092;11.556;2022-11-20T18:17:40;-0.60;99.90
5419;DHT22;2732;52.092;11.556;2022-11-20T18:22:41;-0.60;99.90
5419;DHT22;2732;52.092;11.556;2022-11-20T18:27:42;-0.70;99.90
5419;DHT22;2732;52.092;11.556;2022-11-20T18:32:43;-0.70;99.90
5419;DHT22;2732;52.092;11.556;2022-11-20T18:37:43;-0.70;99.90
5419;DHT22;2732;52.092;11.556;2022-11-20T18:42:44;-0.80;99.90
5419;DHT22;2732;52.092;11.556;2022-11-20T18:48:03;-0.80;99.90
5419;DHT22;2732;52.092;11.556;2022-11-20T18:53:04;-0.80;99.90
5419;DHT22;2732;52.092;11.556;2022-11-20T18:58:05;-0.80;99.90
5419;DHT22;2732;52.092;11.556;2022-11-20T19:03:06;-0.80;99.90
5419;DHT22;2732;52.092;11.556;2022-11-20T19:08:06;-0.90;99.90
5419;DHT22;2732;52.092;11.556;2022-11-20T19:13:07;-0.90;99.90
5419;DHT22;2732;52.092;11.556;2022-11-20T19:18:08;-1.00;99.90
5419;DHT22;2732;52.092;11.556;2022-11-20T19:23:09;-1.00;99.90
5419;DHT22;2732;52.092;11.556;2022-11-20T19:28:10;-1.00;99.90
5419;DHT22;2732;52.092;11.556;2022-11-20T19:33:10;-1.10;99.90
5419;DHT22;2732;52.092;11.556;2022-11-20T19:38:11;-1.10;99.90
5419;DHT22;2732;52.092;11.556;2022-11-20T19:43:11;-1.10;99.90
5419;DHT22;2732;52.092;11.556;2022-11-20T19:48:12;-1.20;99.90
5419;DHT22;2732;52.092;11.556;2022-11-20T19:53:13;-1.30;99.90
5419;DHT22;2732;52.092;11.556;2022-11-20T19:58:13;-1.30;99.90
5419;DHT22;2732;52.092;11.556;2022-11-20T20:03:14;-1.40;99.90
5419;DHT22;2732;52.092;11.556;2022-11-20T20:08:15;-1.40;99.90
5419;DHT22;2732;52.092;11.556;2022-11-20T20:13:15;-1.40;99.90
5419;DHT22;2732;52.092;11.556;2022-11-20T20:18:16;-1.40;99.90
5419;DHT22;2732;52.092;11.556;2022-11-20T20:23:17;-1.40;99.90
5419;DHT22;2732;52.092;11.556;2022-11-20T20:28:17;-1.30;99.90
5419;DHT22;2732;52.092;11.556;2022-11-20T20:33:19;-1.30;99.90
5419;DHT22;2732;52.092;11.556;2022-11-20T20:38:20;-1.30;99.90
5419;DHT22;2732;52.092;11.556;2022-11-20T20:43:21;-1.30;99.90
5419;DHT22;2732;52.092;11.556;2022-11-20T20:48:23;-1.30;99.90
5419;DHT22;2732;52.092;11.556;2022-11-20T20:53:25;-1.20;99.90
5419;DHT22;2732;52.092;11.556;2022-11-20T20:58:28;-1.20;99.90
5419;DHT22;2732;52.092;11.556;2022-11-20T21:03:30;-1.10;99.90
5419;DHT22;2732;52.092;11.556;2022-11-20T21:08:32;-1.10;99.90
5419;DHT22;2732;52.092;11.556;2022-11-20T21:13:33;-1.10;99.90
5419;DHT22;2732;52.092;11.556;2022-11-20T21:18:35;-1.00;99.90
5419;DHT22;2732;52.092;11.556;2022-11-20T21:23:36;-1.00;99.90
5419;DHT22;2732;52.092;11.556;2022-11-20T21:28:37;-1.00;99.90
5419;DHT22;2732;52.092;11.556;2022-11-20T21:33:44;-0.90;99.90
5419;DHT22;2732;52.092;11.556;2022-11-20T21:38:47;-0.90;99.90
5419;DHT22;2732;52.092;11.556;2022-11-20T21:43:49;-0.90;99.90
5419;DHT22;2732;52.092;11.556;2022-11-20T21:48:50;-0.80;99.90
5419;DHT22;2732;52.092;11.556;2022-11-20T21:53:53;-0.80;99.90
5419;DHT22;2732;52.092;11.556;2022-11-20T21:58:54;-0.80;99.90
5419;DHT22;2732;52.092;11.556;2022-11-20T22:04:00;-0.70;99.90
5419;DHT22;2732;52.092;11.556;2022-11-20T22:09:02;-0.70;99.90
5419;DHT22;2732;52.092;11.556;2022-11-20T22:14:03;-0.70;99.90
5419;DHT22;2732;52.092;11.556;2022-11-20T22:19:22;-0.70;99.90
5419;DHT22;2732;52.092;11.556;2022-11-20T22:24:23;-0.60;99.90
5419;DHT22;2732;52.092;11.556;2022-11-20T22:29:24;-0.60;99.90
5419;DHT22;2732;52.092;11.556;2022-11-20T22:34:25;-0.60;99.90
5419;DHT22;2732;52.092;11.556;2022-11-20T22:39:25;-0.60;99.90
5419;DHT22;2732;52.092;11.556;2022-11-20T22:44:26;-0.50;99.90
5419;DHT22;2732;52.092;11.556;2022-11-20T22:49:27;-0.50;99.90
5419;DHT22;2732;52.092;11.556;2022-11-20T22:54:28;-0.50;99.90
5419;DHT22;2732;52.092;11.556;2022-11-20T22:59:29;-0.50;99.90
5419;DHT22;2732;52.092;11.556;2022-11-20T23:04:29;-0.40;99.90
5419;DHT22;2732;52.092;11.556;2022-11-20T23:09:30;-0.40;99.90
5419;DHT22;2732;52.092;11.556;2022-11-20T23:14:30;-0.40;99.90
5419;DHT22;2732;52.092;11.556;2022-11-20T23:19:31;-0.30;99.90
5419;DHT22;2732;52.092;11.556;2022-11-20T23:24:32;-0.30;99.90
5419;DHT22;2732;52.092;11.556;2022-11-20T23:29:32;-0.30;99.90
5419;DHT22;2732;52.092;11.556;2022-11-20T23:34:33;-0.30;99.90
5419;DHT22;2732;52.092;11.556;2022-11-20T23:39:34;-0.20;99.90
5419;DHT22;2732;52.092;11.556;2022-11-20T23:44:34;-0.30;99.90
5419;DHT22;2732;52.092;11.556;2022-11-20T23:49:35;-0.20;99.90
5419;DHT22;2732;52.092;11.556;2022-11-20T23:54:36;-0.20;99.90
5419;DHT22;2732;52.092;11.556;2022-11-20T23:59:37;-0.20;99.90
